sensor_id;sensor_type;location;lat;lon;timestamp;P1;durP1;ratioP1;P2;durP2;ratioP2
46216;SDS011;47258;59.424;13.482;2024-01-30T00:01:29;55.20;;;10.10;;
46216;SDS011;47258;59.424;13.482;2024-01-30T00:03:54;56.60;;;9.98;;
46216;SDS011;47258;59.424;13.482;2024-01-30T00:06:20;50.65;;;10.75;;
46216;SDS011;47258;59.424;13.482;2024-01-30T00:08:46;76.70;;;10.82;;
46216;SDS011;47258;59.424;13.482;2024-01-30T00:11:16;65.28;;;11.15;;
46216;SDS011;47258;59.424;13.482;2024-01-30T00:13:42;42.42;;;10.27;;
46216;SDS011;47258;59.424;13.482;2024-01-30T00:16:07;43.03;;;10.23;;
46216;SDS011;47258;59.424;13.482;2024-01-30T00:18:34;67.60;;;10.00;;
46216;SDS011;47258;59.424;13.482;2024-01-30T00:21:00;81.03;;;12.52;;
46216;SDS011;47258;59.424;13.482;2024-01-30T00:23:26;85.57;;;14.30;;
46216;SDS011;47258;59.424;13.482;2024-01-30T00:25:52;31.52;;;9.68;;
46216;SDS011;47258;59.424;13.482;2024-01-30T00:28:17;48.95;;;9.95;;
46216;SDS011;47258;59.424;13.482;2024-01-30T00:30:44;52.05;;;9.45;;
46216;SDS011;47258;59.424;13.482;2024-01-30T00:33:09;50.95;;;9.88;;
46216;SDS011;47258;59.424;13.482;2024-01-30T00:35:35;48.78;;;9.32;;
46216;SDS011;47258;59.424;13.482;2024-01-30T00:38:01;49.70;;;10.75;;
46216;SDS011;47258;59.424;13.482;2024-01-30T00:40:27;50.28;;;10.02;;
46216;SDS011;47258;59.424;13.482;2024-01-30T00:42:52;84.35;;;10.65;;
46216;SDS011;47258;59.424;13.482;2024-01-30T00:45:18;40.97;;;8.57;;
46216;SDS011;47258;59.424;13.482;2024-01-30T00:47:44;84.28;;;11.23;;
46216;SDS011;47258;59.424;13.482;2024-01-30T00:50:11;62.38;;;9.43;;
46216;SDS011;47258;59.424;13.482;2024-01-30T00:52:37;127.63;;;13.75;;
46216;SDS011;47258;59.424;13.482;2024-01-30T00:55:04;56.83;;;8.75;;
46216;SDS011;47258;59.424;13.482;2024-01-30T00:57:30;71.40;;;9.82;;
46216;SDS011;47258;59.424;13.482;2024-01-30T00:59:56;121.00;;;10.18;;
46216;SDS011;47258;59.424;13.482;2024-01-30T01:02:22;145.52;;;10.32;;
46216;SDS011;47258;59.424;13.482;2024-01-30T01:04:48;140.70;;;10.48;;
46216;SDS011;47258;59.424;13.482;2024-01-30T01:07:13;90.00;;;8.38;;
46216;SDS011;47258;59.424;13.482;2024-01-30T01:09:39;198.60;;;12.13;;
46216;SDS011;47258;59.424;13.482;2024-01-30T01:12:05;114.30;;;9.50;;
46216;SDS011;47258;59.424;13.482;2024-01-30T01:14:31;93.25;;;9.07;;
46216;SDS011;47258;59.424;13.482;2024-01-30T01:16:56;38.25;;;7.20;;
46216;SDS011;47258;59.424;13.482;2024-01-30T01:19:22;75.88;;;8.32;;
46216;SDS011;47258;59.424;13.482;2024-01-30T01:21:48;54.05;;;7.93;;
46216;SDS011;47258;59.424;13.482;2024-01-30T01:24:13;98.25;;;8.98;;
46216;SDS011;47258;59.424;13.482;2024-01-30T01:26:39;209.57;;;13.77;;
46216;SDS011;47258;59.424;13.482;2024-01-30T01:29:06;95.15;;;8.77;;
46216;SDS011;47258;59.424;13.482;2024-01-30T01:31:37;47.67;;;8.32;;
46216;SDS011;47258;59.424;13.482;2024-01-30T01:34:12;97.13;;;10.93;;
46216;SDS011;47258;59.424;13.482;2024-01-30T01:36:38;173.93;;;13.68;;
46216;SDS011;47258;59.424;13.482;2024-01-30T01:39:04;292.27;;;18.33;;
46216;SDS011;47258;59.424;13.482;2024-01-30T01:41:31;107.85;;;9.50;;
46216;SDS011;47258;59.424;13.482;2024-01-30T01:43:57;114.10;;;9.85;;
46216;SDS011;47258;59.424;13.482;2024-01-30T01:46:23;92.55;;;9.00;;
46216;SDS011;47258;59.424;13.482;2024-01-30T01:48:51;95.13;;;9.98;;
46216;SDS011;47258;59.424;13.482;2024-01-30T01:51:17;109.90;;;9.93;;
46216;SDS011;47258;59.424;13.482;2024-01-30T01:53:43;101.18;;;10.30;;
46216;SDS011;47258;59.424;13.482;2024-01-30T01:56:09;77.13;;;9.65;;
46216;SDS011;47258;59.424;13.482;2024-01-30T01:58:36;78.85;;;8.77;;
46216;SDS011;47258;59.424;13.482;2024-01-30T02:01:02;58.58;;;9.05;;
46216;SDS011;47258;59.424;13.482;2024-01-30T02:03:30;73.10;;;9.30;;
46216;SDS011;47258;59.424;13.482;2024-01-30T02:05:56;120.13;;;12.32;;
46216;SDS011;47258;59.424;13.482;2024-01-30T02:08:22;69.47;;;10.25;;
46216;SDS011;47258;59.424;13.482;2024-01-30T02:10:49;51.38;;;10.10;;
46216;SDS011;47258;59.424;13.482;2024-01-30T02:13:15;88.90;;;10.55;;
46216;SDS011;47258;59.424;13.482;2024-01-30T02:15:41;158.07;;;15.82;;
46216;SDS011;47258;59.424;13.482;2024-01-30T02:18:06;77.20;;;10.82;;
46216;SDS011;47258;59.424;13.482;2024-01-30T02:20:32;50.60;;;7.97;;
46216;SDS011;47258;59.424;13.482;2024-01-30T02:23:00;80.20;;;10.25;;
46216;SDS011;47258;59.424;13.482;2024-01-30T02:25:33;80.35;;;9.73;;
46216;SDS011;47258;59.424;13.482;2024-01-30T02:28:01;57.92;;;8.18;;
46216;SDS011;47258;59.424;13.482;2024-01-30T02:30:26;70.22;;;9.23;;
46216;SDS011;47258;59.424;13.482;2024-01-30T02:32:52;90.03;;;9.23;;
46216;SDS011;47258;59.424;13.482;2024-01-30T02:35:18;85.25;;;9.02;;
46216;SDS011;47258;59.424;13.482;2024-01-30T02:37:44;107.10;;;9.10;;
46216;SDS011;47258;59.424;13.482;2024-01-30T02:40:09;63.65;;;9.35;;
46216;SDS011;47258;59.424;13.482;2024-01-30T02:42:35;95.40;;;8.23;;
46216;SDS011;47258;59.424;13.482;2024-01-30T02:45:01;103.18;;;10.00;;
46216;SDS011;47258;59.424;13.482;2024-01-30T02:47:26;96.47;;;9.20;;
46216;SDS011;47258;59.424;13.482;2024-01-30T02:49:52;127.55;;;10.77;;
46216;SDS011;47258;59.424;13.482;2024-01-30T02:52:18;141.82;;;10.80;;
46216;SDS011;47258;59.424;13.482;2024-01-30T02:54:44;235.02;;;14.90;;
46216;SDS011;47258;59.424;13.482;2024-01-30T02:57:10;134.07;;;9.88;;
46216;SDS011;47258;59.424;13.482;2024-01-30T02:59:35;115.32;;;9.73;;
46216;SDS011;47258;59.424;13.482;2024-01-30T03:02:01;118.88;;;10.90;;
46216;SDS011;47258;59.424;13.482;2024-01-30T03:04:27;202.70;;;13.88;;
46216;SDS011;47258;59.424;13.482;2024-01-30T03:06:55;195.52;;;13.80;;
46216;SDS011;47258;59.424;13.482;2024-01-30T03:09:20;166.98;;;11.35;;
46216;SDS011;47258;59.424;13.482;2024-01-30T03:11:46;145.35;;;10.27;;
46216;SDS011;47258;59.424;13.482;2024-01-30T03:14:12;140.20;;;11.27;;
46216;SDS011;47258;59.424;13.482;2024-01-30T03:16:37;115.07;;;8.93;;
46216;SDS011;47258;59.424;13.482;2024-01-30T03:19:05;132.73;;;9.32;;
46216;SDS011;47258;59.424;13.482;2024-01-30T03:21:32;97.63;;;9.48;;
46216;SDS011;47258;59.424;13.482;2024-01-30T03:23:58;109.47;;;9.80;;
46216;SDS011;47258;59.424;13.482;2024-01-30T03:26:24;102.80;;;9.80;;
46216;SDS011;47258;59.424;13.482;2024-01-30T03:28:50;110.55;;;10.88;;
46216;SDS011;47258;59.424;13.482;2024-01-30T03:31:16;98.65;;;10.32;;
46216;SDS011;47258;59.424;13.482;2024-01-30T03:33:42;83.00;;;7.88;;
46216;SDS011;47258;59.424;13.482;2024-01-30T03:36:08;69.50;;;8.60;;
46216;SDS011;47258;59.424;13.482;2024-01-30T03:38:34;61.40;;;9.65;;
46216;SDS011;47258;59.424;13.482;2024-01-30T03:41:00;76.07;;;8.80;;
46216;SDS011;47258;59.424;13.482;2024-01-30T03:43:26;80.18;;;8.85;;
46216;SDS011;47258;59.424;13.482;2024-01-30T03:45:52;81.90;;;8.43;;
46216;SDS011;47258;59.424;13.482;2024-01-30T03:48:18;104.65;;;9.38;;
46216;SDS011;47258;59.424;13.482;2024-01-30T03:50:45;69.72;;;8.43;;
46216;SDS011;47258;59.424;13.482;2024-01-30T03:53:10;107.03;;;10.07;;
46216;SDS011;47258;59.424;13.482;2024-01-30T03:55:36;95.88;;;8.35;;
46216;SDS011;47258;59.424;13.482;2024-01-30T03:58:02;60.88;;;8.02;;
46216;SDS011;47258;59.424;13.482;2024-01-30T04:00:28;88.07;;;8.60;;
46216;SDS011;47258;59.424;13.482;2024-01-30T04:02:53;89.38;;;10.80;;
46216;SDS011;47258;59.424;13.482;2024-01-30T04:05:19;80.00;;;10.73;;
46216;SDS011;47258;59.424;13.482;2024-01-30T04:07:44;61.88;;;9.27;;
46216;SDS011;47258;59.424;13.482;2024-01-30T04:10:10;226.02;;;15.60;;
46216;SDS011;47258;59.424;13.482;2024-01-30T04:12:36;94.22;;;8.68;;
46216;SDS011;47258;59.424;13.482;2024-01-30T04:15:02;41.92;;;7.13;;
46216;SDS011;47258;59.424;13.482;2024-01-30T04:17:28;171.30;;;13.68;;
46216;SDS011;47258;59.424;13.482;2024-01-30T04:19:54;150.02;;;13.43;;
46216;SDS011;47258;59.424;13.482;2024-01-30T04:22:20;158.68;;;12.73;;
46216;SDS011;47258;59.424;13.482;2024-01-30T04:24:46;39.88;;;6.82;;
46216;SDS011;47258;59.424;13.482;2024-01-30T04:27:12;48.75;;;6.97;;
46216;SDS011;47258;59.424;13.482;2024-01-30T04:29:38;118.10;;;10.40;;
46216;SDS011;47258;59.424;13.482;2024-01-30T04:32:03;127.60;;;9.05;;
46216;SDS011;47258;59.424;13.482;2024-01-30T04:34:29;72.63;;;7.30;;
46216;SDS011;47258;59.424;13.482;2024-01-30T04:36:55;54.55;;;6.05;;
46216;SDS011;47258;59.424;13.482;2024-01-30T04:39:21;53.13;;;6.28;;
46216;SDS011;47258;59.424;13.482;2024-01-30T04:41:47;51.97;;;6.80;;
46216;SDS011;47258;59.424;13.482;2024-01-30T04:44:13;48.95;;;6.35;;
46216;SDS011;47258;59.424;13.482;2024-01-30T04:46:39;42.65;;;6.30;;
46216;SDS011;47258;59.424;13.482;2024-01-30T04:49:05;20.98;;;5.35;;
46216;SDS011;47258;59.424;13.482;2024-01-30T04:51:32;28.20;;;6.18;;
46216;SDS011;47258;59.424;13.482;2024-01-30T04:53:58;37.45;;;5.82;;
46216;SDS011;47258;59.424;13.482;2024-01-30T04:56:24;13.38;;;4.28;;
46216;SDS011;47258;59.424;13.482;2024-01-30T04:58:50;13.32;;;4.43;;
46216;SDS011;47258;59.424;13.482;2024-01-30T05:01:16;10.85;;;4.50;;
46216;SDS011;47258;59.424;13.482;2024-01-30T05:03:42;10.38;;;4.28;;
46216;SDS011;47258;59.424;13.482;2024-01-30T05:06:07;9.10;;;4.07;;
46216;SDS011;47258;59.424;13.482;2024-01-30T05:08:33;6.70;;;4.18;;
46216;SDS011;47258;59.424;13.482;2024-01-30T05:11:01;15.88;;;5.10;;
46216;SDS011;47258;59.424;13.482;2024-01-30T05:13:30;7.20;;;4.97;;
46216;SDS011;47258;59.424;13.482;2024-01-30T05:15:56;9.50;;;5.22;;
46216;SDS011;47258;59.424;13.482;2024-01-30T05:18:21;8.25;;;5.43;;
46216;SDS011;47258;59.424;13.482;2024-01-30T05:20:47;11.13;;;5.57;;
46216;SDS011;47258;59.424;13.482;2024-01-30T05:23:13;12.23;;;6.10;;
46216;SDS011;47258;59.424;13.482;2024-01-30T05:25:39;12.48;;;6.47;;
46216;SDS011;47258;59.424;13.482;2024-01-30T05:28:05;12.38;;;6.15;;
46216;SDS011;47258;59.424;13.482;2024-01-30T05:30:30;9.85;;;5.43;;
46216;SDS011;47258;59.424;13.482;2024-01-30T05:32:56;8.20;;;5.90;;
46216;SDS011;47258;59.424;13.482;2024-01-30T05:35:22;12.30;;;5.80;;
46216;SDS011;47258;59.424;13.482;2024-01-30T05:37:48;10.32;;;5.45;;
46216;SDS011;47258;59.424;13.482;2024-01-30T05:40:15;9.07;;;5.70;;
46216;SDS011;47258;59.424;13.482;2024-01-30T05:42:41;9.02;;;5.95;;
46216;SDS011;47258;59.424;13.482;2024-01-30T05:45:07;8.55;;;5.38;;
46216;SDS011;47258;59.424;13.482;2024-01-30T05:47:34;9.27;;;5.05;;
46216;SDS011;47258;59.424;13.482;2024-01-30T05:50:00;8.75;;;5.68;;
46216;SDS011;47258;59.424;13.482;2024-01-30T05:52:26;11.38;;;5.25;;
46216;SDS011;47258;59.424;13.482;2024-01-30T05:54:51;8.73;;;5.28;;
46216;SDS011;47258;59.424;13.482;2024-01-30T05:57:17;14.00;;;5.43;;
46216;SDS011;47258;59.424;13.482;2024-01-30T05:59:44;10.88;;;5.40;;
46216;SDS011;47258;59.424;13.482;2024-01-30T06:02:10;12.32;;;6.10;;
46216;SDS011;47258;59.424;13.482;2024-01-30T06:04:36;10.82;;;5.78;;
46216;SDS011;47258;59.424;13.482;2024-01-30T06:07:02;11.60;;;6.38;;
46216;SDS011;47258;59.424;13.482;2024-01-30T06:09:28;13.60;;;5.88;;
46216;SDS011;47258;59.424;13.482;2024-01-30T06:11:56;9.65;;;5.68;;
46216;SDS011;47258;59.424;13.482;2024-01-30T06:14:22;9.15;;;5.43;;
46216;SDS011;47258;59.424;13.482;2024-01-30T06:16:48;12.27;;;5.35;;
46216;SDS011;47258;59.424;13.482;2024-01-30T06:19:13;10.23;;;5.75;;
46216;SDS011;47258;59.424;13.482;2024-01-30T06:21:39;9.57;;;4.95;;
46216;SDS011;47258;59.424;13.482;2024-01-30T06:24:05;7.85;;;5.38;;
46216;SDS011;47258;59.424;13.482;2024-01-30T06:26:30;9.27;;;5.93;;
46216;SDS011;47258;59.424;13.482;2024-01-30T06:28:56;8.63;;;5.28;;
46216;SDS011;47258;59.424;13.482;2024-01-30T06:31:22;8.13;;;4.78;;
46216;SDS011;47258;59.424;13.482;2024-01-30T06:33:48;12.10;;;5.65;;
46216;SDS011;47258;59.424;13.482;2024-01-30T06:36:14;8.57;;;5.10;;
46216;SDS011;47258;59.424;13.482;2024-01-30T06:38:40;10.35;;;5.15;;
46216;SDS011;47258;59.424;13.482;2024-01-30T06:41:06;10.48;;;5.22;;
46216;SDS011;47258;59.424;13.482;2024-01-30T06:43:32;11.02;;;5.72;;
46216;SDS011;47258;59.424;13.482;2024-01-30T06:45:58;16.05;;;7.22;;
46216;SDS011;47258;59.424;13.482;2024-01-30T06:48:24;13.85;;;5.53;;
46216;SDS011;47258;59.424;13.482;2024-01-30T06:50:53;15.05;;;6.13;;
46216;SDS011;47258;59.424;13.482;2024-01-30T06:53:19;13.73;;;5.83;;
46216;SDS011;47258;59.424;13.482;2024-01-30T06:55:45;17.38;;;7.70;;
46216;SDS011;47258;59.424;13.482;2024-01-30T06:58:11;12.23;;;6.03;;
46216;SDS011;47258;59.424;13.482;2024-01-30T07:00:37;14.73;;;6.45;;
46216;SDS011;47258;59.424;13.482;2024-01-30T07:03:03;14.07;;;6.30;;
46216;SDS011;47258;59.424;13.482;2024-01-30T07:05:29;18.58;;;7.13;;
46216;SDS011;47258;59.424;13.482;2024-01-30T07:07:55;18.58;;;7.32;;
46216;SDS011;47258;59.424;13.482;2024-01-30T07:10:20;16.48;;;6.97;;
46216;SDS011;47258;59.424;13.482;2024-01-30T07:12:46;26.23;;;8.50;;
46216;SDS011;47258;59.424;13.482;2024-01-30T07:15:12;21.45;;;7.40;;
46216;SDS011;47258;59.424;13.482;2024-01-30T07:17:41;17.63;;;7.35;;
46216;SDS011;47258;59.424;13.482;2024-01-30T07:20:07;26.02;;;8.80;;
46216;SDS011;47258;59.424;13.482;2024-01-30T07:22:34;30.48;;;8.85;;
46216;SDS011;47258;59.424;13.482;2024-01-30T07:25:00;32.97;;;8.55;;
46216;SDS011;47258;59.424;13.482;2024-01-30T07:27:25;31.13;;;9.25;;
46216;SDS011;47258;59.424;13.482;2024-01-30T07:29:51;42.65;;;10.27;;
46216;SDS011;47258;59.424;13.482;2024-01-30T07:32:17;32.83;;;8.90;;
46216;SDS011;47258;59.424;13.482;2024-01-30T07:34:43;45.72;;;9.45;;
46216;SDS011;47258;59.424;13.482;2024-01-30T07:37:09;34.15;;;9.25;;
46216;SDS011;47258;59.424;13.482;2024-01-30T07:39:35;42.05;;;9.40;;
46216;SDS011;47258;59.424;13.482;2024-01-30T07:42:01;51.00;;;10.25;;
46216;SDS011;47258;59.424;13.482;2024-01-30T07:44:27;45.50;;;9.27;;
46216;SDS011;47258;59.424;13.482;2024-01-30T07:46:53;46.05;;;9.35;;
46216;SDS011;47258;59.424;13.482;2024-01-30T07:49:22;99.93;;;12.35;;
46216;SDS011;47258;59.424;13.482;2024-01-30T07:51:48;25.15;;;7.50;;
46216;SDS011;47258;59.424;13.482;2024-01-30T07:54:13;30.15;;;8.15;;
46216;SDS011;47258;59.424;13.482;2024-01-30T07:56:39;32.58;;;8.25;;
46216;SDS011;47258;59.424;13.482;2024-01-30T07:59:05;33.13;;;8.00;;
46216;SDS011;47258;59.424;13.482;2024-01-30T08:01:34;51.45;;;9.32;;
46216;SDS011;47258;59.424;13.482;2024-01-30T08:04:00;21.83;;;6.93;;
46216;SDS011;47258;59.424;13.482;2024-01-30T08:06:26;56.80;;;9.70;;
46216;SDS011;47258;59.424;13.482;2024-01-30T08:08:51;39.28;;;7.72;;
46216;SDS011;47258;59.424;13.482;2024-01-30T08:11:19;57.47;;;9.00;;
46216;SDS011;47258;59.424;13.482;2024-01-30T08:13:50;51.75;;;8.18;;
46216;SDS011;47258;59.424;13.482;2024-01-30T08:16:16;33.10;;;7.00;;
46216;SDS011;47258;59.424;13.482;2024-01-30T08:18:42;38.03;;;6.50;;
46216;SDS011;47258;59.424;13.482;2024-01-30T08:21:08;53.28;;;9.02;;
46216;SDS011;47258;59.424;13.482;2024-01-30T08:23:34;25.27;;;7.18;;
46216;SDS011;47258;59.424;13.482;2024-01-30T08:26:00;31.15;;;7.05;;
46216;SDS011;47258;59.424;13.482;2024-01-30T08:28:25;33.85;;;8.25;;
46216;SDS011;47258;59.424;13.482;2024-01-30T08:30:51;35.03;;;7.50;;
46216;SDS011;47258;59.424;13.482;2024-01-30T08:33:17;40.38;;;8.90;;
46216;SDS011;47258;59.424;13.482;2024-01-30T08:35:43;36.45;;;8.68;;
46216;SDS011;47258;59.424;13.482;2024-01-30T08:38:09;51.22;;;9.25;;
46216;SDS011;47258;59.424;13.482;2024-01-30T08:40:37;37.55;;;8.13;;
46216;SDS011;47258;59.424;13.482;2024-01-30T08:43:03;26.67;;;8.85;;
46216;SDS011;47258;59.424;13.482;2024-01-30T08:45:29;28.42;;;9.88;;
46216;SDS011;47258;59.424;13.482;2024-01-30T08:47:55;29.73;;;10.18;;
46216;SDS011;47258;59.424;13.482;2024-01-30T08:50:21;24.92;;;9.10;;
46216;SDS011;47258;59.424;13.482;2024-01-30T08:52:47;30.88;;;9.90;;
46216;SDS011;47258;59.424;13.482;2024-01-30T08:55:13;42.42;;;9.55;;
46216;SDS011;47258;59.424;13.482;2024-01-30T08:57:39;71.45;;;11.95;;
46216;SDS011;47258;59.424;13.482;2024-01-30T09:00:04;42.58;;;9.65;;
46216;SDS011;47258;59.424;13.482;2024-01-30T09:02:32;42.00;;;9.73;;
46216;SDS011;47258;59.424;13.482;2024-01-30T09:04:58;38.88;;;10.35;;
46216;SDS011;47258;59.424;13.482;2024-01-30T09:07:23;41.80;;;10.40;;
46216;SDS011;47258;59.424;13.482;2024-01-30T09:09:49;66.60;;;11.45;;
46216;SDS011;47258;59.424;13.482;2024-01-30T09:12:15;229.10;;;15.80;;
46216;SDS011;47258;59.424;13.482;2024-01-30T09:14:41;128.63;;;12.25;;
46216;SDS011;47258;59.424;13.482;2024-01-30T09:17:06;115.05;;;11.93;;
46216;SDS011;47258;59.424;13.482;2024-01-30T09:19:33;100.95;;;10.75;;
46216;SDS011;47258;59.424;13.482;2024-01-30T09:21:58;61.20;;;8.82;;
46216;SDS011;47258;59.424;13.482;2024-01-30T09:24:25;59.15;;;8.85;;
46216;SDS011;47258;59.424;13.482;2024-01-30T09:26:54;63.80;;;10.85;;
46216;SDS011;47258;59.424;13.482;2024-01-30T09:29:19;37.30;;;9.18;;
46216;SDS011;47258;59.424;13.482;2024-01-30T09:31:45;38.13;;;9.05;;
46216;SDS011;47258;59.424;13.482;2024-01-30T09:34:12;47.03;;;9.38;;
46216;SDS011;47258;59.424;13.482;2024-01-30T09:36:38;25.00;;;8.55;;
46216;SDS011;47258;59.424;13.482;2024-01-30T09:39:04;15.65;;;6.90;;
46216;SDS011;47258;59.424;13.482;2024-01-30T09:41:32;16.90;;;7.25;;
46216;SDS011;47258;59.424;13.482;2024-01-30T09:43:59;15.02;;;6.45;;
46216;SDS011;47258;59.424;13.482;2024-01-30T09:46:27;13.75;;;6.53;;
46216;SDS011;47258;59.424;13.482;2024-01-30T09:48:55;11.80;;;5.55;;
46216;SDS011;47258;59.424;13.482;2024-01-30T09:51:22;10.90;;;5.90;;
46216;SDS011;47258;59.424;13.482;2024-01-30T09:53:49;11.20;;;5.90;;
46216;SDS011;47258;59.424;13.482;2024-01-30T09:56:15;9.52;;;5.95;;
46216;SDS011;47258;59.424;13.482;2024-01-30T09:58:41;14.93;;;6.53;;
46216;SDS011;47258;59.424;13.482;2024-01-30T10:01:07;18.20;;;6.93;;
46216;SDS011;47258;59.424;13.482;2024-01-30T10:03:33;18.83;;;7.50;;
46216;SDS011;47258;59.424;13.482;2024-01-30T10:05:59;17.17;;;6.85;;
46216;SDS011;47258;59.424;13.482;2024-01-30T10:08:26;29.73;;;8.15;;
46216;SDS011;47258;59.424;13.482;2024-01-30T10:10:52;18.90;;;7.82;;
46216;SDS011;47258;59.424;13.482;2024-01-30T10:13:18;15.65;;;6.80;;
46216;SDS011;47258;59.424;13.482;2024-01-30T10:15:44;21.30;;;7.20;;
46216;SDS011;47258;59.424;13.482;2024-01-30T10:18:12;19.47;;;7.03;;
46216;SDS011;47258;59.424;13.482;2024-01-30T10:20:38;17.02;;;6.68;;
46216;SDS011;47258;59.424;13.482;2024-01-30T10:23:04;18.75;;;8.27;;
46216;SDS011;47258;59.424;13.482;2024-01-30T10:25:32;19.80;;;6.22;;
46216;SDS011;47258;59.424;13.482;2024-01-30T10:27:58;15.60;;;6.75;;
46216;SDS011;47258;59.424;13.482;2024-01-30T10:30:24;15.38;;;6.63;;
46216;SDS011;47258;59.424;13.482;2024-01-30T10:32:50;15.10;;;7.18;;
46216;SDS011;47258;59.424;13.482;2024-01-30T10:35:16;14.23;;;6.20;;
46216;SDS011;47258;59.424;13.482;2024-01-30T10:37:48;14.00;;;6.65;;
46216;SDS011;47258;59.424;13.482;2024-01-30T10:40:15;10.85;;;5.55;;
46216;SDS011;47258;59.424;13.482;2024-01-30T10:42:44;12.20;;;6.03;;
46216;SDS011;47258;59.424;13.482;2024-01-30T10:45:11;9.57;;;5.47;;
46216;SDS011;47258;59.424;13.482;2024-01-30T10:47:39;13.50;;;4.93;;
46216;SDS011;47258;59.424;13.482;2024-01-30T10:50:07;11.38;;;5.47;;
46216;SDS011;47258;59.424;13.482;2024-01-30T10:52:34;14.23;;;7.03;;
46216;SDS011;47258;59.424;13.482;2024-01-30T10:55:00;10.68;;;5.00;;
46216;SDS011;47258;59.424;13.482;2024-01-30T10:57:26;10.60;;;5.95;;
46216;SDS011;47258;59.424;13.482;2024-01-30T10:59:56;8.88;;;5.45;;
46216;SDS011;47258;59.424;13.482;2024-01-30T11:02:24;8.02;;;4.35;;
46216;SDS011;47258;59.424;13.482;2024-01-30T11:04:54;7.50;;;4.53;;
46216;SDS011;47258;59.424;13.482;2024-01-30T11:07:25;6.15;;;4.13;;
46216;SDS011;47258;59.424;13.482;2024-01-30T11:10:02;6.20;;;3.63;;
46216;SDS011;47258;59.424;13.482;2024-01-30T11:12:29;17.10;;;4.75;;
46216;SDS011;47258;59.424;13.482;2024-01-30T11:15:08;6.63;;;4.88;;
46216;SDS011;47258;59.424;13.482;2024-01-30T11:17:42;6.15;;;4.07;;
46216;SDS011;47258;59.424;13.482;2024-01-30T11:20:21;5.03;;;4.03;;
46216;SDS011;47258;59.424;13.482;2024-01-30T11:22:50;6.75;;;3.67;;
46216;SDS011;47258;59.424;13.482;2024-01-30T11:25:19;4.78;;;3.83;;
46216;SDS011;47258;59.424;13.482;2024-01-30T11:27:46;5.93;;;3.95;;
46216;SDS011;47258;59.424;13.482;2024-01-30T11:30:28;6.63;;;4.15;;
46216;SDS011;47258;59.424;13.482;2024-01-30T11:33:08;6.18;;;4.10;;
46216;SDS011;47258;59.424;13.482;2024-01-30T11:35:36;5.88;;;3.63;;
46216;SDS011;47258;59.424;13.482;2024-01-30T11:38:06;6.60;;;4.10;;
46216;SDS011;47258;59.424;13.482;2024-01-30T11:40:34;6.50;;;3.85;;
46216;SDS011;47258;59.424;13.482;2024-01-30T11:43:02;4.85;;;3.80;;
46216;SDS011;47258;59.424;13.482;2024-01-30T11:45:32;6.75;;;4.00;;
46216;SDS011;47258;59.424;13.482;2024-01-30T11:47:58;6.85;;;4.07;;
46216;SDS011;47258;59.424;13.482;2024-01-30T11:50:31;5.35;;;4.82;;
46216;SDS011;47258;59.424;13.482;2024-01-30T11:55:26;8.18;;;4.78;;
46216;SDS011;47258;59.424;13.482;2024-01-30T11:57:56;5.63;;;4.35;;
46216;SDS011;47258;59.424;13.482;2024-01-30T12:00:23;5.18;;;4.00;;
46216;SDS011;47258;59.424;13.482;2024-01-30T12:02:53;5.03;;;4.40;;
46216;SDS011;47258;59.424;13.482;2024-01-30T12:05:25;5.18;;;3.95;;
46216;SDS011;47258;59.424;13.482;2024-01-30T12:07:52;4.75;;;3.85;;
46216;SDS011;47258;59.424;13.482;2024-01-30T12:10:18;3.53;;;3.15;;
46216;SDS011;47258;59.424;13.482;2024-01-30T12:12:48;4.25;;;3.65;;
46216;SDS011;47258;59.424;13.482;2024-01-30T12:15:15;3.28;;;2.95;;
46216;SDS011;47258;59.424;13.482;2024-01-30T12:17:41;2.92;;;2.70;;
46216;SDS011;47258;59.424;13.482;2024-01-30T12:20:08;3.55;;;2.85;;
46216;SDS011;47258;59.424;13.482;2024-01-30T12:22:43;5.95;;;3.40;;
46216;SDS011;47258;59.424;13.482;2024-01-30T12:25:10;2.78;;;2.58;;
46216;SDS011;47258;59.424;13.482;2024-01-30T12:27:37;3.30;;;2.58;;
46216;SDS011;47258;59.424;13.482;2024-01-30T12:30:07;3.13;;;2.90;;
46216;SDS011;47258;59.424;13.482;2024-01-30T12:32:38;3.47;;;2.58;;
46216;SDS011;47258;59.424;13.482;2024-01-30T12:35:10;2.67;;;2.47;;
46216;SDS011;47258;59.424;13.482;2024-01-30T12:37:37;3.97;;;2.78;;
46216;SDS011;47258;59.424;13.482;2024-01-30T12:40:04;3.08;;;2.20;;
46216;SDS011;47258;59.424;13.482;2024-01-30T12:42:31;3.05;;;2.58;;
46216;SDS011;47258;59.424;13.482;2024-01-30T12:44:57;2.67;;;2.45;;
46216;SDS011;47258;59.424;13.482;2024-01-30T12:47:25;3.05;;;2.40;;
46216;SDS011;47258;59.424;13.482;2024-01-30T12:49:51;2.58;;;2.38;;
46216;SDS011;47258;59.424;13.482;2024-01-30T12:52:18;3.72;;;2.22;;
46216;SDS011;47258;59.424;13.482;2024-01-30T12:54:45;2.67;;;2.22;;
46216;SDS011;47258;59.424;13.482;2024-01-30T12:57:11;2.38;;;1.88;;
46216;SDS011;47258;59.424;13.482;2024-01-30T12:59:37;2.13;;;1.92;;
46216;SDS011;47258;59.424;13.482;2024-01-30T13:02:02;2.72;;;2.45;;
46216;SDS011;47258;59.424;13.482;2024-01-30T13:04:29;5.90;;;3.00;;
46216;SDS011;47258;59.424;13.482;2024-01-30T13:06:54;2.70;;;2.50;;
46216;SDS011;47258;59.424;13.482;2024-01-30T13:09:20;2.70;;;2.35;;
46216;SDS011;47258;59.424;13.482;2024-01-30T13:11:46;2.30;;;2.13;;
46216;SDS011;47258;59.424;13.482;2024-01-30T13:14:12;2.60;;;2.40;;
46216;SDS011;47258;59.424;13.482;2024-01-30T13:16:38;2.45;;;2.08;;
46216;SDS011;47258;59.424;13.482;2024-01-30T13:19:03;4.25;;;2.13;;
46216;SDS011;47258;59.424;13.482;2024-01-30T13:21:29;2.10;;;1.90;;
46216;SDS011;47258;59.424;13.482;2024-01-30T13:23:55;2.00;;;1.90;;
46216;SDS011;47258;59.424;13.482;2024-01-30T13:26:21;2.50;;;2.30;;
46216;SDS011;47258;59.424;13.482;2024-01-30T13:28:47;2.67;;;2.42;;
46216;SDS011;47258;59.424;13.482;2024-01-30T13:31:13;2.35;;;2.13;;
46216;SDS011;47258;59.424;13.482;2024-01-30T13:33:40;2.13;;;2.00;;
46216;SDS011;47258;59.424;13.482;2024-01-30T13:36:06;2.13;;;2.03;;
46216;SDS011;47258;59.424;13.482;2024-01-30T13:38:33;3.65;;;2.75;;
46216;SDS011;47258;59.424;13.482;2024-01-30T13:40:59;2.65;;;2.45;;
46216;SDS011;47258;59.424;13.482;2024-01-30T13:43:25;3.75;;;2.58;;
46216;SDS011;47258;59.424;13.482;2024-01-30T13:45:51;2.33;;;2.22;;
46216;SDS011;47258;59.424;13.482;2024-01-30T13:48:17;2.17;;;1.98;;
46216;SDS011;47258;59.424;13.482;2024-01-30T13:50:43;3.53;;;2.38;;
46216;SDS011;47258;59.424;13.482;2024-01-30T13:53:09;2.90;;;2.60;;
46216;SDS011;47258;59.424;13.482;2024-01-30T13:55:34;2.75;;;2.38;;
46216;SDS011;47258;59.424;13.482;2024-01-30T13:58:00;3.15;;;2.85;;
46216;SDS011;47258;59.424;13.482;2024-01-30T14:00:29;3.25;;;2.63;;
46216;SDS011;47258;59.424;13.482;2024-01-30T14:02:55;3.40;;;3.10;;
46216;SDS011;47258;59.424;13.482;2024-01-30T14:05:22;2.58;;;2.38;;
46216;SDS011;47258;59.424;13.482;2024-01-30T14:07:48;2.88;;;2.67;;
46216;SDS011;47258;59.424;13.482;2024-01-30T14:10:15;2.90;;;2.70;;
46216;SDS011;47258;59.424;13.482;2024-01-30T14:12:41;4.22;;;3.10;;
46216;SDS011;47258;59.424;13.482;2024-01-30T14:15:08;3.33;;;2.60;;
46216;SDS011;47258;59.424;13.482;2024-01-30T14:17:35;2.40;;;2.20;;
46216;SDS011;47258;59.424;13.482;2024-01-30T14:20:01;86.03;;;7.05;;